createdAt,value
2019-02-07T00:00:39.943Z,7.22
2019-02-07T00:03:08.957Z,7.26
2019-02-07T00:05:38.003Z,7.15
2019-02-07T00:08:07.028Z,7.07
2019-02-07T00:10:36.544Z,7.09
2019-02-07T00:13:05.577Z,7.10
2019-02-07T00:15:36.545Z,7.10
2019-02-07T00:18:05.449Z,7.09
2019-02-07T00:20:34.530Z,7.10
2019-02-07T00:23:03.643Z,7.01
2019-02-07T00:25:33.036Z,7.01
2019-02-07T00:28:02.089Z,6.95
2019-02-07T00:30:31.097Z,7.05
2019-02-07T00:33:00.141Z,7.05
2019-02-07T00:35:29.162Z,7.00
2019-02-07T00:37:58.214Z,7.00
2019-02-07T00:40:27.419Z,6.95
2019-02-07T00:42:56.520Z,6.83
2019-02-07T00:45:25.544Z,6.95
2019-02-07T00:47:54.616Z,6.83
2019-02-07T00:50:23.663Z,6.75
2019-02-07T00:52:52.723Z,6.77
2019-02-07T00:55:22.206Z,6.72
2019-02-07T00:57:51.234Z,6.70
2019-02-07T01:00:22.394Z,6.68
2019-02-07T01:02:51.491Z,6.60
2019-02-07T01:05:21.355Z,6.69
2019-02-07T01:07:50.415Z,6.73
2019-02-07T01:10:21.852Z,6.59
2019-02-07T01:12:50.856Z,6.61
2019-02-07T01:15:19.939Z,6.48
2019-02-07T01:17:49.006Z,6.59
2019-02-07T01:20:18.037Z,6.48
2019-02-07T01:22:47.042Z,6.57
2019-02-07T01:25:18.603Z,6.56
2019-02-07T01:27:47.805Z,6.47
2019-02-07T01:30:19.115Z,6.49
2019-02-07T01:32:50.349Z,6.45
2019-02-07T01:35:19.388Z,6.42
2019-02-07T01:37:48.425Z,6.47
2019-02-07T01:40:18.208Z,6.39
2019-02-07T01:42:47.344Z,6.36
2019-02-07T01:45:18.709Z,6.34
2019-02-07T01:47:47.722Z,6.44
2019-02-07T01:50:18.058Z,6.38
2019-02-07T01:52:47.407Z,6.31
2019-02-07T01:55:16.453Z,6.31
2019-02-07T01:57:45.479Z,6.38
2019-02-07T02:00:16.288Z,6.25
2019-02-07T02:02:45.351Z,6.25
2019-02-07T02:05:15.370Z,6.23
2019-02-07T02:07:44.693Z,6.24
2019-02-07T02:10:25.343Z,6.32
2019-02-07T02:12:54.364Z,6.35
2019-02-07T02:15:25.076Z,6.30
2019-02-07T02:17:54.495Z,6.34
2019-02-07T02:20:25.628Z,6.35
2019-02-07T02:22:55.251Z,6.29
2019-02-07T02:25:24.366Z,6.27
2019-02-07T02:27:53.389Z,6.21
2019-02-07T02:30:30.487Z,6.29
2019-02-07T02:32:59.792Z,6.19
2019-02-07T02:35:28.819Z,6.14
2019-02-07T02:37:57.841Z,6.11
2019-02-07T02:40:26.881Z,6.18
2019-02-07T02:42:55.973Z,6.08
2019-02-07T02:45:36.596Z,6.13
2019-02-07T02:47:55.838Z,6.21
2019-02-07T02:50:24.989Z,6.13
2019-02-07T02:52:54.029Z,6.17
2019-02-07T02:55:34.518Z,6.12
2019-02-07T02:58:03.555Z,6.12
2019-02-07T03:01:03.881Z,6.10
2019-02-07T03:03:40.524Z,6.19
2019-02-07T03:06:27.120Z,6.10
2019-02-07T03:09:14.000Z,6.12
2019-02-07T03:12:01.970Z,6.14
2019-02-07T03:14:48.575Z,6.09
2019-02-07T03:17:45.651Z,6.15
2019-02-07T03:20:32.345Z,6.26
2019-02-07T03:23:20.520Z,6.14
2019-02-07T03:26:14.549Z,6.16
2019-02-07T03:29:13.699Z,6.24
2019-02-07T03:32:00.490Z,6.07
2019-02-07T03:34:57.421Z,6.06
2019-02-07T03:37:41.872Z,6.19
2019-02-07T03:40:45.286Z,6.19
2019-02-07T03:43:32.034Z,6.10
2019-02-07T03:46:20.010Z,6.10
2019-02-07T03:48:59.198Z,6.07
2019-02-07T03:52:05.649Z,6.12
2019-02-07T03:54:56.723Z,6.14
2019-02-07T03:57:50.583Z,6.13
2019-02-07T04:00:47.653Z,6.15
2019-02-07T04:03:44.894Z,6.23
2019-02-07T04:06:40.212Z,6.32
2019-02-07T04:09:27.197Z,6.12
2019-02-07T04:12:15.181Z,6.23
2019-02-07T04:15:01.689Z,6.13
2019-02-07T04:17:50.154Z,6.30
2019-02-07T04:20:53.250Z,6.29
2019-02-07T04:23:41.199Z,6.22
2019-02-07T04:26:29.186Z,6.18
2019-02-07T04:29:20.350Z,6.23
2019-02-07T04:32:23.702Z,6.25
2019-02-07T04:35:01.014Z,6.26
2019-02-07T04:37:52.044Z,6.25
2019-02-07T04:40:34.742Z,6.31
2019-02-07T04:43:25.781Z,6.36
2019-02-07T04:46:26.625Z,6.26
2019-02-07T04:48:57.723Z,6.26
2019-02-07T04:51:48.467Z,6.31
2019-02-07T04:54:32.909Z,6.24
2019-02-07T04:57:20.856Z,6.25
2019-02-07T05:00:14.839Z,6.47
2019-02-07T05:03:21.083Z,6.40
2019-02-07T05:06:27.199Z,6.39
2019-02-07T05:09:13.050Z,6.30
2019-02-07T05:12:07.047Z,6.37
2019-02-07T05:14:50.158Z,6.42
2019-02-07T05:17:56.563Z,6.39
2019-02-07T05:20:48.428Z,6.47
2019-02-07T05:23:48.762Z,6.50
2019-02-07T05:26:49.110Z,6.49
2019-02-07T05:29:40.538Z,6.53
2019-02-07T05:32:36.328Z,6.55
2019-02-07T05:35:35.123Z,6.54
2019-02-07T05:38:20.424Z,6.62
2019-02-07T05:41:07.266Z,6.61
2019-02-07T05:44:10.987Z,6.68
2019-02-07T05:47:01.409Z,6.65
2019-02-07T05:49:57.712Z,6.72
2019-02-07T05:52:57.890Z,6.77
2019-02-07T05:55:54.901Z,6.77
2019-02-07T05:58:52.224Z,6.73
2019-02-07T06:01:37.688Z,6.87
2019-02-07T06:04:37.191Z,6.86
2019-02-07T06:07:23.774Z,6.87
2019-02-07T06:10:27.019Z,6.89
2019-02-07T06:13:13.898Z,6.94
2019-02-07T06:16:10.995Z,7.02
2019-02-07T06:18:58.250Z,7.02
2019-02-07T06:21:48.105Z,7.07
2019-02-07T06:24:54.132Z,7.12
2019-02-07T06:27:43.486Z,7.04
2019-02-07T06:30:48.048Z,7.09
2019-02-07T06:33:36.307Z,7.06
2019-02-07T06:36:32.180Z,7.14
2019-02-07T06:39:28.493Z,7.15
2019-02-07T06:42:20.553Z,7.15
2019-02-07T06:45:06.132Z,7.13
2019-02-07T06:48:11.542Z,7.15
2019-02-07T06:50:58.259Z,7.12
2019-02-07T06:53:45.158Z,7.06
2019-02-07T06:56:32.706Z,7.06
2019-02-07T06:59:23.839Z,7.08
2019-02-07T07:02:11.828Z,7.13
2019-02-07T07:05:02.834Z,7.06
2019-02-07T07:08:02.840Z,6.98
2019-02-07T07:10:57.065Z,6.98
2019-02-07T07:13:48.398Z,6.92
2019-02-07T07:16:54.756Z,6.93
2019-02-07T07:19:48.973Z,6.89
2019-02-07T07:22:36.269Z,6.89
2019-02-07T07:25:24.740Z,6.88
2019-02-07T07:28:11.572Z,6.94
2019-02-07T07:30:58.406Z,7.00
2019-02-07T07:33:44.640Z,6.98
2019-02-07T07:36:44.875Z,7.09
2019-02-07T07:39:38.967Z,7.05
2019-02-07T07:42:38.820Z,7.11
2019-02-07T07:45:23.548Z,7.13
2019-02-07T07:48:23.794Z,7.22
2019-02-07T07:51:30.100Z,7.09
2019-02-07T07:54:10.380Z,7.21
2019-02-07T07:57:14.244Z,7.32
2019-02-07T08:00:07.979Z,7.30
2019-02-07T08:03:14.435Z,7.31
2019-02-07T08:05:56.240Z,7.38
2019-02-07T08:08:42.824Z,7.32
2019-02-07T08:11:29.756Z,7.48
2019-02-07T08:14:26.756Z,7.50
2019-02-07T08:17:05.843Z,7.55
2019-02-07T08:20:12.361Z,7.49
2019-02-07T08:23:09.448Z,7.54
2019-02-07T08:25:56.570Z,7.48
2019-02-07T08:28:56.996Z,7.53
2019-02-07T08:31:35.230Z,7.65
2019-02-07T08:34:21.981Z,7.70
2019-02-07T08:37:28.663Z,7.79
2019-02-07T08:40:31.947Z,7.88
2019-02-07T08:43:23.138Z,7.85
2019-02-07T08:46:10.279Z,8.01
2019-02-07T08:49:01.124Z,7.99
2019-02-07T08:52:02.203Z,8.22
2019-02-07T08:55:08.440Z,8.35
2019-02-07T08:57:55.962Z,8.59
2019-02-07T09:00:29.657Z,8.71
2019-02-07T09:03:17.719Z,8.72
2019-02-07T09:05:58.601Z,8.80
2019-02-07T09:08:45.359Z,8.80
2019-02-07T09:11:51.751Z,9.03
2019-02-07T09:14:43.207Z,9.02
2019-02-07T09:17:29.908Z,9.05
2019-02-07T09:20:18.008Z,9.12
2019-02-07T09:23:01.149Z,9.05
2019-02-07T09:25:58.202Z,9.22
2019-02-07T09:28:45.386Z,9.34
2019-02-07T09:31:39.443Z,9.36
2019-02-07T09:34:17.621Z,9.27
2019-02-07T09:37:15.362Z,9.32
2019-02-07T09:40:04.160Z,9.48
2019-02-07T09:43:10.306Z,9.46
2019-02-07T09:45:57.337Z,9.47
2019-02-07T09:48:44.249Z,9.52
2019-02-07T09:51:44.269Z,9.59
2019-02-07T09:54:44.579Z,9.58
2019-02-07T09:57:38.627Z,9.67
2019-02-07T10:00:27.530Z,9.59
2019-02-07T10:03:15.846Z,9.81
2019-02-07T10:06:06.855Z,10.02
2019-02-07T10:09:03.797Z,10.09
2019-02-07T10:12:03.852Z,10.25
2019-02-07T10:14:45.461Z,10.52
2019-02-07T10:17:32.131Z,10.51
2019-02-07T10:20:30.835Z,10.33
2019-02-07T10:23:18.381Z,10.33
2019-02-07T10:26:05.186Z,10.19
2019-02-07T10:29:05.176Z,10.23
2019-02-07T10:32:02.269Z,10.24
2019-02-07T10:34:50.275Z,10.14
2019-02-07T10:37:37.449Z,10.15
2019-02-07T10:40:34.877Z,10.12
2019-02-07T10:43:36.087Z,10.14
2019-02-07T10:46:24.765Z,10.29
2019-02-07T10:49:16.107Z,10.21
2019-02-07T10:52:10.183Z,10.38
2019-02-07T10:54:49.158Z,10.52
2019-02-07T10:57:36.002Z,10.44
2019-02-07T11:00:31.170Z,10.54
2019-02-07T11:03:13.615Z,10.36
2019-02-07T11:06:00.613Z,10.23
2019-02-07T11:08:37.536Z,10.06
2019-02-07T11:11:14.895Z,10.19
2019-02-07T11:14:10.168Z,10.03
2019-02-07T11:17:07.481Z,9.87
2019-02-07T11:19:54.299Z,9.83
2019-02-07T11:22:48.212Z,9.92
2019-02-07T11:25:42.059Z,10.17
2019-02-07T11:28:18.985Z,10.20
2019-02-07T11:31:13.074Z,10.61
2019-02-07T11:33:59.971Z,10.88
2019-02-07T11:37:03.402Z,10.74
2019-02-07T11:39:49.535Z,10.92
2019-02-07T11:42:32.206Z,10.77
2019-02-07T11:45:32.868Z,10.78
2019-02-07T11:48:27.518Z,10.68
2019-02-07T11:51:21.771Z,10.51
2019-02-07T11:54:27.976Z,10.81
2019-02-07T11:57:15.990Z,10.71
2019-02-07T12:00:03.777Z,10.61
2019-02-07T12:02:51.820Z,10.73
2019-02-07T12:05:50.713Z,10.62
2019-02-07T12:08:47.933Z,10.50
2019-02-07T12:11:38.480Z,10.66
2019-02-07T12:14:31.185Z,10.56
2019-02-07T12:17:17.753Z,10.78
2019-02-07T12:20:08.539Z,10.73
2019-02-07T12:22:49.542Z,10.93
2019-02-07T12:25:40.381Z,10.84
2019-02-07T12:28:27.749Z,11.04
2019-02-07T12:31:18.745Z,11.25
2019-02-07T12:33:58.806Z,11.18
2019-02-07T12:36:38.441Z,11.09
2019-02-07T12:39:45.786Z,11.16
2019-02-07T12:42:30.566Z,10.78
2019-02-07T12:45:13.957Z,10.90
2019-02-07T12:48:08.242Z,10.82
2019-02-07T12:50:57.561Z,11.04
2019-02-07T12:53:39.273Z,10.94
2019-02-07T12:56:26.647Z,11.16
2019-02-07T12:59:13.305Z,11.08
2019-02-07T13:02:10.449Z,11.18
2019-02-07T13:05:01.271Z,11.38
2019-02-07T13:07:48.137Z,11.34
2019-02-07T13:10:42.862Z,11.53
2019-02-07T13:13:26.044Z,11.31
2019-02-07T13:16:09.921Z,11.28
2019-02-07T13:19:16.238Z,11.25
2019-02-07T13:22:01.584Z,11.18
2019-02-07T13:24:39.826Z,11.01
2019-02-07T13:27:26.626Z,10.96
2019-02-07T13:30:19.346Z,11.21
2019-02-07T13:33:05.756Z,11.19
2019-02-07T13:35:52.429Z,11.14
2019-02-07T13:38:40.424Z,11.12
2019-02-07T13:41:27.688Z,11.19
2019-02-07T13:44:15.677Z,11.30
2019-02-07T13:47:21.776Z,11.31
2019-02-07T13:50:08.243Z,11.18
2019-02-07T13:52:56.282Z,11.09
2019-02-07T13:55:53.678Z,11.16
2019-02-07T13:58:47.796Z,11.24
2019-02-07T14:01:38.583Z,11.36
2019-02-07T14:04:25.080Z,11.30
2019-02-07T14:07:15.860Z,11.19
2019-02-07T14:10:09.731Z,11.41
2019-02-07T14:12:57.333Z,11.49
2019-02-07T14:15:42.333Z,11.42
2019-02-07T14:21:52.574Z,11.27
2019-02-07T14:24:40.939Z,11.27
2019-02-07T14:27:20.766Z,11.35
2019-02-07T14:30:08.298Z,11.04
2019-02-07T14:32:56.307Z,10.96
2019-02-07T14:35:43.095Z,10.86
2019-02-07T14:38:25.868Z,10.93
2019-02-07T14:41:07.329Z,10.81
2019-02-07T14:44:01.386Z,10.81
2019-02-07T14:46:55.705Z,10.71
2019-02-07T14:49:24.862Z,10.70
2019-02-07T14:51:54.425Z,10.58
2019-02-07T14:54:23.508Z,10.67
2019-02-07T14:56:52.551Z,10.64
2019-02-07T14:59:21.684Z,10.60
2019-02-07T15:01:50.768Z,10.58
2019-02-07T15:04:19.900Z,10.62
2019-02-07T15:06:49.067Z,10.60
2019-02-07T15:09:20.417Z,10.69
2019-02-07T15:11:49.481Z,10.53
2019-02-07T15:14:18.554Z,10.58
2019-02-07T15:16:47.820Z,10.55
2019-02-07T15:19:16.933Z,10.53
2019-02-07T15:21:46.011Z,10.61
2019-02-07T15:24:15.180Z,10.46
2019-02-07T15:26:44.354Z,10.35
2019-02-07T15:29:15.993Z,10.25
2019-02-07T15:31:44.431Z,10.22
2019-02-07T15:34:13.475Z,10.35
2019-02-07T15:36:44.807Z,10.31
2019-02-07T15:39:15.985Z,10.24
2019-02-07T15:41:45.078Z,10.10
2019-02-07T15:44:14.183Z,9.91
2019-02-07T15:46:43.269Z,9.79
2019-02-07T15:49:12.352Z,9.83
2019-02-07T15:51:41.588Z,9.86
2019-02-07T15:54:10.634Z,9.81
2019-02-07T15:56:39.840Z,9.74
2019-02-07T15:59:17.543Z,9.76
2019-02-07T16:01:54.544Z,9.89
2019-02-07T16:04:33.491Z,9.67
2019-02-07T16:07:02.630Z,9.46
2019-02-07T16:09:31.774Z,9.32
2019-02-07T16:12:00.922Z,9.30
2019-02-07T16:14:30.046Z,9.19
2019-02-07T16:16:59.623Z,8.90
2019-02-07T16:19:28.730Z,8.73
2019-02-07T16:21:58.008Z,8.60
2019-02-07T16:24:27.081Z,8.41
2019-02-07T16:26:56.226Z,8.38
2019-02-07T16:29:25.291Z,8.29
2019-02-07T16:31:54.950Z,8.27
2019-02-07T16:34:24.064Z,8.24
2019-02-07T16:36:53.139Z,8.16
2019-02-07T16:39:22.202Z,8.09
2019-02-07T16:41:51.368Z,8.08
2019-02-07T16:44:20.529Z,8.07
2019-02-07T16:46:50.020Z,8.08
2019-02-07T16:49:19.194Z,8.06
2019-02-07T16:51:48.239Z,8.07
2019-02-07T16:54:17.345Z,8.10
2019-02-07T16:56:46.443Z,8.21
2019-02-07T16:59:15.569Z,8.28
2019-02-07T17:01:44.766Z,8.35
2019-02-07T17:04:13.886Z,8.46
2019-02-07T17:06:42.950Z,8.53
2019-02-07T17:09:33.856Z,8.57
2019-02-07T17:12:02.924Z,8.59
2019-02-07T17:14:32.227Z,8.66
2019-02-07T17:17:01.293Z,8.70
2019-02-07T17:19:30.393Z,8.73
2019-02-07T17:21:59.475Z,8.70
2019-02-07T17:24:28.576Z,8.74
2019-02-07T17:26:57.659Z,8.80
2019-02-07T17:29:26.782Z,8.79
2019-02-07T17:31:55.924Z,8.88
2019-02-07T17:34:25.070Z,8.91
2019-02-07T17:36:54.197Z,8.82
2019-02-07T17:39:23.454Z,8.84
2019-02-07T17:41:52.717Z,8.89
2019-02-07T17:44:22.184Z,8.83
2019-02-07T17:46:51.346Z,8.88
2019-02-07T17:49:20.634Z,8.91
2019-02-07T17:51:49.737Z,8.84
2019-02-07T17:54:19.299Z,8.78
2019-02-07T17:56:48.392Z,8.75
2019-02-07T17:59:17.827Z,8.80
2019-02-07T18:01:47.025Z,8.80
2019-02-07T18:04:16.250Z,8.71
2019-02-07T18:06:45.409Z,8.50
2019-02-07T18:09:14.540Z,8.56
2019-02-07T18:11:43.742Z,8.51
2019-02-07T18:14:12.876Z,8.40
2019-02-07T18:16:42.059Z,8.27
2019-02-07T18:19:11.186Z,8.35
2019-02-07T18:21:40.415Z,8.31
2019-02-07T18:24:09.494Z,8.26
2019-02-07T18:26:38.645Z,8.35
2019-02-07T18:29:07.735Z,8.31
2019-02-07T18:31:36.895Z,8.26
2019-02-07T18:34:06.087Z,8.35
2019-02-07T18:37:32.044Z,8.34
2019-02-07T18:40:31.492Z,8.32
2019-02-07T18:54:32.014Z,8.17
2019-02-07T18:57:01.158Z,8.26
2019-02-07T18:59:30.272Z,8.20
2019-02-07T19:01:59.591Z,8.20
2019-02-07T19:04:28.739Z,8.15
2019-02-07T19:06:57.883Z,8.22
2019-02-07T19:09:26.989Z,8.29
2019-02-07T19:11:56.117Z,8.36
2019-02-07T19:14:25.278Z,8.37
2019-02-07T19:18:16.858Z,8.36
2019-02-07T19:20:46.070Z,8.37
2019-02-07T19:27:27.879Z,8.34
2019-02-07T19:29:57.060Z,8.35
2019-02-07T19:32:26.318Z,8.28
2019-02-07T19:34:55.736Z,8.30
2019-02-07T19:37:24.813Z,8.27
2019-02-07T19:39:53.981Z,8.21
2019-02-07T19:42:23.075Z,8.24
2019-02-07T19:44:52.272Z,8.18
2019-02-07T19:47:21.528Z,8.07
2019-02-07T19:49:56.306Z,8.04
2019-02-07T19:52:25.457Z,8.01
2019-02-07T19:54:54.591Z,7.95
2019-02-07T19:57:23.699Z,8.01
2019-02-07T19:59:53.169Z,7.95
2019-02-07T20:02:22.304Z,8.03
2019-02-07T20:04:51.768Z,8.06
2019-02-07T20:07:21.324Z,8.05
2019-02-07T20:09:50.461Z,8.06
2019-02-07T20:12:19.592Z,7.93
2019-02-07T20:14:51.996Z,7.84
2019-02-07T20:17:21.194Z,7.79
2019-02-07T20:19:50.568Z,7.80
2019-02-07T20:22:20.582Z,7.79
2019-02-07T20:24:49.715Z,7.76
2019-02-07T20:27:18.897Z,7.69
2019-02-07T20:29:48.024Z,7.74
2019-02-07T20:32:17.144Z,7.75
2019-02-07T20:34:46.329Z,7.78
2019-02-07T20:37:15.991Z,7.76
2019-02-07T20:39:46.081Z,7.73
2019-02-07T20:42:15.267Z,7.84
2019-02-07T20:44:44.394Z,7.84
2019-02-07T20:47:13.546Z,7.77
2019-02-07T20:49:42.706Z,7.69
2019-02-07T20:52:11.845Z,7.72
2019-02-07T20:54:41.090Z,7.61
2019-02-07T20:57:10.234Z,7.60
2019-02-07T20:59:39.399Z,7.51
2019-02-07T21:02:08.499Z,7.50
2019-02-07T21:04:38.228Z,7.56
2019-02-07T21:07:07.836Z,7.58
2019-02-07T21:09:37.531Z,7.61
2019-02-07T21:12:06.766Z,7.61
2019-02-07T21:14:35.977Z,7.46
2019-02-07T21:17:05.058Z,7.40
2019-02-07T21:19:34.225Z,7.43
2019-02-07T21:22:03.342Z,7.50
2019-02-07T21:24:32.520Z,7.47
2019-02-07T21:27:01.995Z,7.46
2019-02-07T21:29:31.114Z,7.49
2019-02-07T21:32:00.279Z,7.58
2019-02-07T21:34:29.343Z,7.58
2019-02-07T21:37:01.550Z,7.63
2019-02-07T21:39:30.787Z,7.61
2019-02-07T21:42:00.009Z,7.60
2019-02-07T21:44:29.114Z,7.59
2019-02-07T21:46:58.326Z,7.74
2019-02-07T21:49:27.526Z,7.78
2019-02-07T21:51:56.707Z,7.76
2019-02-07T21:54:25.776Z,7.85
2019-02-07T21:56:55.025Z,7.86
2019-02-07T21:59:24.329Z,7.86
2019-02-07T22:01:53.488Z,7.83
2019-02-07T22:04:22.696Z,7.91
2019-02-07T22:06:51.824Z,7.86
2019-02-07T22:09:20.967Z,7.84
2019-02-07T22:11:50.076Z,7.85
2019-02-07T22:14:19.542Z,7.85
2019-02-07T22:16:48.601Z,7.89
2019-02-07T22:19:17.679Z,7.92
2019-02-07T22:21:46.837Z,7.86
2019-02-07T22:24:15.927Z,7.97
2019-02-07T22:26:45.023Z,7.87
2019-02-07T22:29:14.098Z,7.93
2019-02-07T22:31:43.170Z,7.89
2019-02-07T22:34:12.229Z,7.93
2019-02-07T22:36:41.409Z,7.94
2019-02-07T22:39:10.507Z,7.98
2019-02-07T22:41:39.773Z,7.95
2019-02-07T22:44:08.856Z,8.01
2019-02-07T22:46:38.060Z,8.00
2019-02-07T22:49:07.145Z,7.94
2019-02-07T22:51:36.247Z,7.96
2019-02-07T22:54:05.514Z,7.98
2019-02-07T22:56:34.597Z,7.97
2019-02-07T22:59:03.743Z,7.83
2019-02-07T23:01:42.836Z,7.81
2019-02-07T23:04:11.940Z,7.79
2019-02-07T23:06:41.071Z,7.72
2019-02-07T23:09:11.889Z,7.72
2019-02-07T23:11:41.020Z,7.69
2019-02-07T23:14:10.417Z,7.58
2019-02-07T23:16:39.493Z,7.60
2019-02-07T23:19:08.575Z,7.56
2019-02-07T23:21:37.638Z,7.54
2019-02-07T23:24:06.714Z,7.50
2019-02-07T23:26:35.793Z,7.47
2019-02-07T23:29:04.915Z,7.52
2019-02-07T23:31:37.074Z,7.57
2019-02-07T23:34:06.462Z,7.63
2019-02-07T23:36:35.522Z,7.70
2019-02-07T23:39:07.156Z,7.69
2019-02-07T23:41:36.233Z,7.81
2019-02-07T23:44:06.559Z,7.84
2019-02-07T23:46:35.655Z,7.84
2019-02-07T23:49:04.745Z,7.82
2019-02-07T23:51:33.910Z,7.90
2019-02-07T23:54:03.090Z,7.88
2019-02-07T23:56:32.175Z,7.85
2019-02-07T23:59:01.270Z,7.82
